Time;durP1;ratioP1;P1;durP2;ratioP2;P2;SDS_P1;SDS_P2;PMS_P1;PMS_P2;Temp;Humidity;BMP_temperature;BMP_pressure;BME280_temperature;BME280_humidity;BME280_pressure;Samples;Min_cycle;Max_cycle;Signal;HPM_P1;HPM_P2
2022/05/04 00:01:54;;;;;;;10.77;9.87;;;;;;;;;;5091987;28;20474;-77
2022/05/04 00:04:21;;;;;;;8.77;8.17;;;;;;;;;;5094951;28;20440;-78
2022/05/04 00:06:48;;;;;;;9.57;8.67;;;;;;;;;;5094408;28;20470;-77
2022/05/04 00:09:15;;;;;;;9.53;8.73;;;;;;;;;;5094872;28;20659;-77
2022/05/04 00:11:44;;;;;;;9.73;8.57;;;;;;;;;;5094892;28;20505;-77
2022/05/04 00:14:12;;;;;;;11.67;9.40;;;;;;;;;;5094615;28;20781;-77
2022/05/04 00:16:39;;;;;;;10.57;9.57;;;;;;;;;;5094186;28;20982;-76
2022/05/04 00:19:06;;;;;;;9.93;9.10;;;;;;;;;;5094224;28;20826;-76
2022/05/04 00:21:33;;;;;;;9.57;8.87;;;;;;;;;;5094746;28;20458;-77
2022/05/04 00:24:00;;;;;;;9.30;8.40;;;;;;;;;;5094673;28;20455;-76
2022/05/04 00:26:27;;;;;;;9.83;9.13;;;;;;;;;;5094424;28;20494;-76
2022/05/04 00:28:54;;;;;;;10.60;9.70;;;;;;;;;;5094734;28;20439;-77
2022/05/04 00:31:24;;;;;;;9.63;8.83;;;;;;;;;;5094448;28;20523;-77
2022/05/04 00:33:51;;;;;;;9.77;8.97;;;;;;;;;;5093642;28;20511;-75
2022/05/04 00:36:18;;;;;;;10.80;9.70;;;;;;;;;;5094408;28;20468;-76
2022/05/04 00:38:45;;;;;;;11.17;10.07;;;;;;;;;;5094009;28;20474;-77
2022/05/04 00:41:12;;;;;;;10.00;8.93;;;;;;;;;;5094100;28;20435;-75
2022/05/04 00:43:39;;;;;;;10.83;9.83;;;;;;;;;;5093884;28;20443;-77
2022/05/04 00:46:06;;;;;;;11.27;9.43;;;;;;;;;;5094293;28;20451;-76
2022/05/04 00:48:35;;;;;;;10.00;9.30;;;;;;;;;;5094141;28;20988;-76
2022/05/04 00:51:02;;;;;;;10.60;9.70;;;;;;;;;;5094064;28;20467;-77
2022/05/04 00:53:29;;;;;;;10.90;9.83;;;;;;;;;;5094283;28;20452;-76
2022/05/04 00:55:59;;;;;;;10.70;9.70;;;;;;;;;;5094267;28;20447;-77
2022/05/04 01:01:11;;;;;;;11.00;10.10;;;;;;;;;;5093806;28;20939;-77
2022/05/04 01:03:40;;;;;;;9.90;9.10;;;;;;;;;;5093993;28;20446;-76
2022/05/04 01:06:07;;;;;;;11.50;10.30;;;;;;;;;;5093632;28;20468;-77
2022/05/04 01:08:34;;;;;;;12.67;9.77;;;;;;;;;;5094056;28;20440;-77
2022/05/04 01:11:01;;;;;;;10.10;9.30;;;;;;;;;;5093606;28;20447;-77
2022/05/04 01:13:28;;;;;;;10.40;9.60;;;;;;;;;;5092784;28;20436;-77
2022/05/04 01:15:55;;;;;;;10.60;9.80;;;;;;;;;;5093712;28;20451;-75
2022/05/04 01:18:22;;;;;;;10.63;9.83;;;;;;;;;;5093789;28;20447;-76
2022/05/04 01:20:51;;;;;;;10.70;9.90;;;;;;;;;;5094059;28;20770;-76
2022/05/04 01:23:19;;;;;;;10.87;9.87;;;;;;;;;;5093475;28;20447;-76
2022/05/04 01:25:46;;;;;;;9.57;8.77;;;;;;;;;;5094080;28;20463;-77
2022/05/04 01:28:13;;;;;;;10.60;9.50;;;;;;;;;;5094385;28;20452;-77
2022/05/04 01:30:40;;;;;;;10.93;9.90;;;;;;;;;;5094241;28;20452;-77
2022/05/04 01:33:07;;;;;;;9.80;9.00;;;;;;;;;;5093172;28;20455;-77
2022/05/04 01:35:34;;;;;;;10.70;9.87;;;;;;;;;;5093241;28;20812;-77
2022/05/04 01:38:01;;;;;;;11.13;10.17;;;;;;;;;;5093699;28;20959;-77
2022/05/04 01:40:30;;;;;;;11.40;10.30;;;;;;;;;;5093270;28;20476;-76
2022/05/04 01:42:57;;;;;;;11.70;10.73;;;;;;;;;;5093449;28;20444;-77
2022/05/04 01:45:24;;;;;;;10.80;9.80;;;;;;;;;;5093178;28;20443;-78
2022/05/04 01:47:52;;;;;;;10.83;9.80;;;;;;;;;;5093105;28;20479;-77
2022/05/04 01:50:19;;;;;;;10.70;9.90;;;;;;;;;;5093297;28;20439;-77
2022/05/04 01:52:46;;;;;;;10.57;9.70;;;;;;;;;;5093219;28;20456;-76
2022/05/04 01:55:14;;;;;;;11.90;10.90;;;;;;;;;;5092977;28;20804;-77
2022/05/04 01:57:43;;;;;;;10.60;9.80;;;;;;;;;;5093189;28;20466;-77
2022/05/04 02:00:11;;;;;;;11.20;10.13;;;;;;;;;;5093107;28;20492;-77
2022/05/04 02:02:38;;;;;;;10.57;9.77;;;;;;;;;;5094018;28;20774;-77
2022/05/04 02:05:05;;;;;;;11.00;10.13;;;;;;;;;;5095273;28;20923;-76
2022/05/04 02:07:33;;;;;;;11.10;10.20;;;;;;;;;;5095300;28;20460;-76
2022/05/04 02:10:00;;;;;;;10.80;10.00;;;;;;;;;;5095114;28;20448;-75
2022/05/04 02:12:28;;;;;;;11.33;10.43;;;;;;;;;;5093182;28;20833;-77
2022/05/04 02:14:56;;;;;;;10.90;10.00;;;;;;;;;;5092289;28;20436;-77
2022/05/04 02:17:23;;;;;;;11.33;10.47;;;;;;;;;;5091623;28;20490;-76
2022/05/04 02:19:50;;;;;;;10.90;10.10;;;;;;;;;;5092205;28;20483;-76
2022/05/04 02:22:18;;;;;;;11.20;10.30;;;;;;;;;;5092401;28;20467;-77
2022/05/04 02:24:45;;;;;;;10.70;9.60;;;;;;;;;;5091821;28;20455;-77
2022/05/04 02:27:12;;;;;;;11.80;10.70;;;;;;;;;;5091628;28;20448;-76
2022/05/04 02:29:39;;;;;;;12.00;11.00;;;;;;;;;;5092403;28;20440;-77
2022/05/04 02:32:09;;;;;;;12.37;11.27;;;;;;;;;;5092411;28;20436;-76
2022/05/04 02:37:54;;;;;;;12.23;10.73;;;;;;;;;;5093146;28;20454;-77
2022/05/04 02:40:09;;;;;;;11.00;9.90;;;;;;;;;;5092308;28;20836;-77
2022/05/04 02:42:36;;;;;;;11.00;10.00;;;;;;;;;;5092293;28;20439;-76
2022/05/04 02:45:03;;;;;;;11.50;10.50;;;;;;;;;;5091770;28;20454;-77
2022/05/04 02:47:32;;;;;;;12.13;11.23;;;;;;;;;;5092036;28;20471;-77
2022/05/04 02:49:59;;;;;;;11.40;10.17;;;;;;;;;;5092013;28;20440;-76
2022/05/04 02:52:26;;;;;;;13.23;10.60;;;;;;;;;;5091684;28;20451;-76
2022/05/04 02:54:53;;;;;;;11.20;10.20;;;;;;;;;;5091680;28;20447;-77
2022/05/04 02:57:20;;;;;;;11.70;10.70;;;;;;;;;;5091432;28;21002;-76
2022/05/04 02:59:47;;;;;;;12.47;11.27;;;;;;;;;;5091206;28;20471;-77
2022/05/04 03:02:29;;;;;;;12.10;11.03;;;;;;;;;;5091692;28;20451;-77
2022/05/04 03:04:59;;;;;;;11.90;10.70;;;;;;;;;;5093868;28;20431;-76
2022/05/04 03:07:27;;;;;;;14.60;12.57;;;;;;;;;;5097212;28;20459;-75
2022/05/04 03:09:54;;;;;;;12.30;11.13;;;;;;;;;;5096723;28;20479;-76
2022/05/04 03:12:21;;;;;;;11.90;10.70;;;;;;;;;;5096611;28;20455;-75
2022/05/04 03:14:48;;;;;;;12.67;11.60;;;;;;;;;;5097870;28;20442;-75
2022/05/04 03:17:15;;;;;;;10.97;10.17;;;;;;;;;;5091478;28;20989;-76
2022/05/04 03:19:42;;;;;;;12.37;11.33;;;;;;;;;;5098445;28;20491;-76
2022/05/04 03:22:11;;;;;;;10.90;9.90;;;;;;;;;;5103671;28;20436;-75
2022/05/04 03:24:38;;;;;;;11.13;10.23;;;;;;;;;;5091881;28;20450;-76
2022/05/04 03:27:05;;;;;;;12.03;10.83;;;;;;;;;;5096702;28;20460;-76
2022/05/04 03:29:32;;;;;;;11.87;10.97;;;;;;;;;;5095032;28;20446;-76
2022/05/04 03:32:00;;;;;;;12.10;11.10;;;;;;;;;;5091427;28;20435;-76
2022/05/04 03:34:27;;;;;;;11.97;10.87;;;;;;;;;;5090940;28;20447;-75
2022/05/04 03:36:54;;;;;;;11.40;10.50;;;;;;;;;;5092249;28;20448;-75
2022/05/04 03:39:23;;;;;;;11.53;10.43;;;;;;;;;;5095485;28;20507;-76
2022/05/04 03:41:50;;;;;;;12.00;11.00;;;;;;;;;;5098913;28;20499;-77
2022/05/04 03:44:17;;;;;;;12.10;11.00;;;;;;;;;;5099190;28;20448;-76
2022/05/04 03:46:45;;;;;;;12.73;11.53;;;;;;;;;;5096113;28;20566;-76
2022/05/04 03:49:13;;;;;;;12.30;11.40;;;;;;;;;;5095434;28;20440;-75
2022/05/04 03:51:40;;;;;;;11.93;10.93;;;;;;;;;;5077621;28;20956;-77
2022/05/04 03:54:07;;;;;;;11.10;10.20;;;;;;;;;;5081386;28;20439;-77
2022/05/04 03:56:36;;;;;;;12.53;11.43;;;;;;;;;;5089063;28;20501;-77
2022/05/04 03:59:04;;;;;;;11.87;11.00;;;;;;;;;;5074987;28;20455;-76
2022/05/04 04:01:31;;;;;;;12.20;11.20;;;;;;;;;;5074955;28;20444;-77
2022/05/04 04:03:58;;;;;;;12.83;11.83;;;;;;;;;;5074979;28;20982;-77
2022/05/04 04:06:26;;;;;;;13.23;12.03;;;;;;;;;;5079363;28;20467;-77
2022/05/04 04:08:53;;;;;;;12.40;11.40;;;;;;;;;;5095304;28;20447;-77
2022/05/04 04:11:21;;;;;;;12.70;11.60;;;;;;;;;;5095539;28;20537;-76
2022/05/04 04:13:49;;;;;;;13.00;11.90;;;;;;;;;;5094986;28;20435;-76
2022/05/04 04:16:17;;;;;;;13.40;12.23;;;;;;;;;;5095331;28;20472;-76
2022/05/04 04:18:44;;;;;;;14.77;11.73;;;;;;;;;;5095629;28;20465;-76
2022/05/04 04:23:56;;;;;;;12.23;11.13;;;;;;;;;;5085334;28;20438;-76
2022/05/04 04:26:23;;;;;;;11.50;10.60;;;;;;;;;;5084267;28;20467;-76
2022/05/04 04:28:52;;;;;;;12.13;11.20;;;;;;;;;;5095254;28;20447;-75
2022/05/04 04:31:19;;;;;;;12.20;11.20;;;;;;;;;;5095073;28;20858;-76
2022/05/04 04:33:46;;;;;;;13.20;12.20;;;;;;;;;;5093093;28;20496;-77
2022/05/04 04:36:13;;;;;;;13.90;12.70;;;;;;;;;;5085003;28;20465;-77
2022/05/04 04:38:40;;;;;;;12.67;11.57;;;;;;;;;;5075015;28;20451;-77
2022/05/04 04:41:07;;;;;;;12.93;11.73;;;;;;;;;;5077901;28;20480;-75
2022/05/04 04:43:34;;;;;;;12.43;11.07;;;;;;;;;;5094391;28;20450;-77
2022/05/04 04:46:02;;;;;;;13.67;12.43;;;;;;;;;;5093541;28;20927;-76
2022/05/04 04:48:29;;;;;;;13.80;12.50;;;;;;;;;;5073421;28;20455;-76
2022/05/04 04:50:56;;;;;;;14.00;12.77;;;;;;;;;;5090651;28;20444;-77
2022/05/04 04:53:23;;;;;;;13.37;12.07;;;;;;;;;;5093161;28;20439;-76
2022/05/04 04:55:51;;;;;;;14.73;12.80;;;;;;;;;;5093293;28;20460;-76
2022/05/04 04:58:18;;;;;;;14.97;13.67;;;;;;;;;;5093316;28;20467;-76
2022/05/04 05:00:45;;;;;;;15.30;13.83;;;;;;;;;;5094355;28;20487;-77
2022/05/04 05:03:13;;;;;;;14.90;13.50;;;;;;;;;;5093942;28;20440;-76
2022/05/04 05:05:41;;;;;;;15.83;14.23;;;;;;;;;;5093900;28;20451;-77
2022/05/04 05:08:08;;;;;;;14.53;13.23;;;;;;;;;;5093420;28;20460;-77
2022/05/04 05:10:36;;;;;;;14.77;13.10;;;;;;;;;;5093666;28;20459;-77
2022/05/04 05:13:03;;;;;;;14.87;13.40;;;;;;;;;;5092081;28;20585;-78
2022/05/04 05:18:16;;;;;;;15.50;14.20;;;;;;;;;;5072801;28;20475;-75
2022/05/04 05:20:43;;;;;;;15.90;13.90;;;;;;;;;;5079847;28;20845;-76
2022/05/04 05:23:10;;;;;;;17.30;15.07;;;;;;;;;;5085335;28;20829;-76
2022/05/04 05:25:37;;;;;;;16.10;14.50;;;;;;;;;;5085946;28;20976;-77
2022/05/04 05:28:05;;;;;;;16.23;14.63;;;;;;;;;;5072305;28;20471;-77
2022/05/04 05:30:32;;;;;;;17.17;15.40;;;;;;;;;;5072436;28;20520;-74
2022/05/04 05:32:59;;;;;;;15.10;13.70;;;;;;;;;;5071969;28;20433;-74
2022/05/04 05:35:27;;;;;;;16.70;15.20;;;;;;;;;;5072894;28;20452;-76
2022/05/04 05:37:54;;;;;;;16.00;14.60;;;;;;;;;;5086450;28;20985;-76
2022/05/04 05:40:21;;;;;;;16.80;15.30;;;;;;;;;;5092531;28;20490;-75
2022/05/04 05:42:48;;;;;;;16.47;14.90;;;;;;;;;;5075867;28;20445;-76
2022/05/04 05:45:15;;;;;;;16.67;14.93;;;;;;;;;;5071666;28;20967;-75
2022/05/04 05:47:42;;;;;;;17.33;15.57;;;;;;;;;;5089957;28;20901;-75
2022/05/04 05:50:11;;;;;;;17.83;16.13;;;;;;;;;;5087832;28;20489;-77
2022/05/04 05:52:39;;;;;;;16.43;14.83;;;;;;;;;;5071553;28;20461;-76
2022/05/04 05:55:07;;;;;;;16.40;14.80;;;;;;;;;;5072019;28;20484;-76
2022/05/04 05:57:34;;;;;;;16.00;14.60;;;;;;;;;;5071239;28;20453;-76
2022/05/04 06:00:01;;;;;;;15.70;14.30;;;;;;;;;;5071161;28;20573;-76
2022/05/04 06:02:29;;;;;;;15.33;14.03;;;;;;;;;;5071249;28;20452;-77
2022/05/04 06:04:56;;;;;;;13.10;12.00;;;;;;;;;;5071299;28;20449;-76
2022/05/04 06:07:23;;;;;;;15.73;13.60;;;;;;;;;;5086751;28;20463;-75
2022/05/04 06:09:52;;;;;;;15.37;13.93;;;;;;;;;;5091617;28;20456;-76
2022/05/04 06:12:19;;;;;;;15.80;14.40;;;;;;;;;;5091440;28;20968;-76
2022/05/04 06:14:46;;;;;;;15.13;13.80;;;;;;;;;;5091925;28;20649;-76
2022/05/04 06:17:14;;;;;;;14.90;13.40;;;;;;;;;;5091357;28;20470;-75
2022/05/04 06:19:41;;;;;;;15.87;14.40;;;;;;;;;;5091095;28;20935;-76
2022/05/04 06:22:08;;;;;;;15.40;13.90;;;;;;;;;;5090234;28;20472;-75
2022/05/04 06:24:35;;;;;;;15.77;14.30;;;;;;;;;;5091130;28;20455;-74
2022/05/04 06:27:04;;;;;;;16.20;14.57;;;;;;;;;;5091218;28;20467;-74
2022/05/04 06:35:04;;;;;;;16.03;13.70;;;;;;;;;;5076635;28;20397;-75
2022/05/04 06:37:31;;;;;;;15.63;14.33;;;;;;;;;;5070864;28;20503;-77
2022/05/04 06:39:58;;;;;;;15.17;13.70;;;;;;;;;;5071229;28;20440;-74
2022/05/04 06:42:26;;;;;;;15.00;13.70;;;;;;;;;;5070231;28;20933;-75
2022/05/04 06:44:53;;;;;;;14.33;13.03;;;;;;;;;;5070211;28;20449;-75
2022/05/04 06:47:20;;;;;;;15.00;13.53;;;;;;;;;;5070135;28;20968;-76
2022/05/04 06:49:47;;;;;;;16.47;15.00;;;;;;;;;;5070711;28;20445;-77
2022/05/04 06:52:14;;;;;;;15.57;14.17;;;;;;;;;;5086002;28;20442;-76
2022/05/04 06:54:42;;;;;;;14.50;13.20;;;;;;;;;;5089918;28;20456;-75
2022/05/04 06:57:09;;;;;;;16.00;14.50;;;;;;;;;;5090098;28;20995;-76
2022/05/04 06:59:38;;;;;;;15.60;14.00;;;;;;;;;;5090600;28;20483;-75
2022/05/04 07:02:05;;;;;;;14.77;13.30;;;;;;;;;;5090254;28;20839;-75
2022/05/04 07:04:32;;;;;;;14.43;13.03;;;;;;;;;;5090736;28;20451;-75
2022/05/04 07:06:59;;;;;;;15.27;13.83;;;;;;;;;;5090496;28;20495;-75
2022/05/04 07:09:26;;;;;;;15.43;13.90;;;;;;;;;;5090672;28;20439;-76
2022/05/04 07:11:54;;;;;;;16.20;14.60;;;;;;;;;;5090077;28;20440;-76
2022/05/04 07:14:21;;;;;;;15.33;13.77;;;;;;;;;;5090261;28;20443;-76
2022/05/04 07:16:49;;;;;;;15.20;13.07;;;;;;;;;;5090002;28;20472;-76
2022/05/04 07:19:16;;;;;;;14.90;13.50;;;;;;;;;;5090055;28;20446;-74
2022/05/04 07:21:43;;;;;;;14.80;13.53;;;;;;;;;;5089874;28;21053;-76
2022/05/04 07:24:11;;;;;;;15.27;13.97;;;;;;;;;;5090081;28;20800;-75
2022/05/04 07:26:39;;;;;;;14.73;13.43;;;;;;;;;;5090508;28;20505;-76
2022/05/04 07:29:06;;;;;;;14.73;13.30;;;;;;;;;;5090400;28;20990;-76
2022/05/04 07:31:33;;;;;;;15.20;13.80;;;;;;;;;;5090437;28;20440;-75
2022/05/04 07:34:01;;;;;;;15.17;13.73;;;;;;;;;;5090117;28;20462;-75
2022/05/04 07:36:28;;;;;;;16.27;14.87;;;;;;;;;;5090280;28;20775;-76
2022/05/04 07:38:55;;;;;;;14.73;13.33;;;;;;;;;;5090078;28;20439;-76
2022/05/04 07:44:07;;;;;;;14.23;12.93;;;;;;;;;;5095698;28;20630;-77
2022/05/04 07:46:34;;;;;;;13.97;12.57;;;;;;;;;;5094599;28;20467;-75
2022/05/04 07:49:04;;;;;;;13.70;12.33;;;;;;;;;;5090561;28;20448;-75
2022/05/04 07:51:31;;;;;;;11.73;10.70;;;;;;;;;;5090392;28;20462;-75
2022/05/04 07:53:58;;;;;;;7.80;7.20;;;;;;;;;;5090130;28;20452;-75
2022/05/04 07:56:25;;;;;;;6.60;6.10;;;;;;;;;;5089999;28;20983;-76
2022/05/04 07:58:52;;;;;;;7.17;6.47;;;;;;;;;;5090268;28;20475;-76
2022/05/04 08:04:18;;;;;;;6.40;6.00;;;;;;;;;;5090485;28;20573;-76
2022/05/04 08:06:45;;;;;;;6.47;5.77;;;;;;;;;;5097319;28;20463;-75
2022/05/04 08:09:12;;;;;;;5.40;5.00;;;;;;;;;;5091327;28;20466;-76
2022/05/04 08:11:39;;;;;;;5.17;4.80;;;;;;;;;;5090588;28;20982;-75
2022/05/04 08:14:07;;;;;;;5.43;4.93;;;;;;;;;;5089828;28;20443;-76
2022/05/04 08:16:34;;;;;;;4.80;4.50;;;;;;;;;;5089647;28;20466;-76
2022/05/04 08:19:03;;;;;;;5.43;5.10;;;;;;;;;;5089604;28;20853;-75
2022/05/04 08:21:31;;;;;;;5.70;5.37;;;;;;;;;;5089564;28;20480;-75
2022/05/04 08:23:58;;;;;;;5.50;5.10;;;;;;;;;;5090001;28;20428;-76
2022/05/04 08:26:25;;;;;;;5.53;5.03;;;;;;;;;;5093348;28;20468;-76
2022/05/04 08:28:53;;;;;;;5.83;5.33;;;;;;;;;;5093051;28;20919;-75
2022/05/04 08:31:21;;;;;;;5.30;4.87;;;;;;;;;;5093399;28;20538;-76
2022/05/04 08:33:48;;;;;;;5.97;5.57;;;;;;;;;;5093057;28;20501;-75
2022/05/04 08:36:15;;;;;;;5.93;5.50;;;;;;;;;;5093105;28;21002;-75
2022/05/04 08:38:44;;;;;;;5.77;5.20;;;;;;;;;;5092935;28;20443;-76
2022/05/04 08:41:11;;;;;;;5.50;5.10;;;;;;;;;;5092843;28;20467;-75
2022/05/04 08:43:40;;;;;;;4.87;4.57;;;;;;;;;;5092969;28;20501;-75
2022/05/04 08:46:07;;;;;;;5.47;5.07;;;;;;;;;;5093005;28;20577;-76
2022/05/04 08:48:35;;;;;;;5.83;5.33;;;;;;;;;;5093154;28;20458;-75
2022/05/04 08:51:03;;;;;;;5.97;5.57;;;;;;;;;;5092809;28;20923;-76
2022/05/04 08:53:31;;;;;;;7.10;6.60;;;;;;;;;;5093151;28;20479;-76
2022/05/04 08:55:59;;;;;;;7.30;6.43;;;;;;;;;;5092445;28;20959;-76
2022/05/04 08:58:26;;;;;;;7.53;6.90;;;;;;;;;;5093198;28;20527;-76
2022/05/04 09:00:53;;;;;;;6.93;6.40;;;;;;;;;;5093016;28;20453;-76
2022/05/04 09:03:21;;;;;;;7.40;6.03;;;;;;;;;;5092672;28;20914;-75
2022/05/04 09:05:49;;;;;;;6.97;6.47;;;;;;;;;;5092591;28;20446;-75
2022/05/04 09:08:16;;;;;;;6.50;6.00;;;;;;;;;;5092467;28;20444;-76
2022/05/04 09:10:45;;;;;;;8.20;7.50;;;;;;;;;;5092275;28;20490;-76
2022/05/04 09:13:13;;;;;;;7.47;6.87;;;;;;;;;;5092289;28;20456;-75
2022/05/04 09:15:41;;;;;;;6.63;6.13;;;;;;;;;;5092846;28;20924;-74
2022/05/04 09:18:09;;;;;;;7.90;7.23;;;;;;;;;;5092345;28;20870;-75
2022/05/04 09:20:53;;;;;;;8.50;7.70;;;;;;;;;;5092488;28;20459;-75
2022/05/04 09:23:21;;;;;;;8.43;7.40;;;;;;;;;;5092371;28;20500;-76
2022/05/04 09:25:51;;;;;;;8.03;6.97;;;;;;;;;;5092607;28;20573;-75
2022/05/04 09:28:20;;;;;;;8.80;8.00;;;;;;;;;;5092259;28;20439;-76
2022/05/04 09:30:48;;;;;;;9.07;8.23;;;;;;;;;;5092241;28;20818;-76
2022/05/04 09:33:18;;;;;;;9.33;8.63;;;;;;;;;;5091956;28;20497;-74
2022/05/04 09:35:45;;;;;;;15.43;11.73;;;;;;;;;;5091710;28;20443;-75
2022/05/04 09:46:33;;;;;;;11.40;9.77;;;;;;;;;;5091858;28;20992;-76
2022/05/04 09:49:09;;;;;;;10.77;9.77;;;;;;;;;;5092561;28;20482;-76
2022/05/04 09:51:37;;;;;;;11.27;10.20;;;;;;;;;;5093531;28;20427;-75
2022/05/04 09:54:13;;;;;;;11.13;10.13;;;;;;;;;;5092460;28;20522;-76
2022/05/04 09:56:40;;;;;;;12.60;11.30;;;;;;;;;;5093119;28;20478;-77
2022/05/04 09:59:09;;;;;;;13.17;12.07;;;;;;;;;;5092308;28;20444;-75
2022/05/04 10:01:37;;;;;;;13.97;12.73;;;;;;;;;;5091588;28;20472;-76
2022/05/04 10:04:05;;;;;;;13.10;12.00;;;;;;;;;;5091228;28;20444;-76
2022/05/04 10:06:32;;;;;;;14.40;13.07;;;;;;;;;;5091551;28;20451;-77
2022/05/04 10:08:59;;;;;;;15.23;13.90;;;;;;;;;;5091092;28;20814;-76
2022/05/04 10:11:26;;;;;;;14.90;13.70;;;;;;;;;;5091406;28;20482;-76
2022/05/04 10:13:54;;;;;;;15.20;13.70;;;;;;;;;;5091060;28;20497;-76
2022/05/04 10:16:22;;;;;;;14.40;13.17;;;;;;;;;;5090785;28;20495;-77
2022/05/04 10:18:50;;;;;;;14.40;13.30;;;;;;;;;;5091115;28;20444;-75
2022/05/04 10:21:18;;;;;;;15.30;13.90;;;;;;;;;;5090705;28;20452;-76
2022/05/04 10:23:46;;;;;;;13.13;11.97;;;;;;;;;;5090917;28;20451;-75
2022/05/04 10:26:13;;;;;;;11.90;10.90;;;;;;;;;;5091993;28;20464;-75
2022/05/04 10:30:29;;;;;;;12.63;11.40;;;;;;;;;;5091618;28;20452;-76
2022/05/04 10:31:30;;;;;;;13.47;12.27;;;;;;;;;;5091694;28;20519;-75
2022/05/04 10:33:58;;;;;;;12.67;11.67;;;;;;;;;;5091723;28;20444;-75
2022/05/04 10:36:29;;;;;;;12.03;11.13;;;;;;;;;;5091904;28;20468;-75
2022/05/04 10:38:57;;;;;;;12.73;11.73;;;;;;;;;;5092133;28;20512;-75
2022/05/04 10:41:35;;;;;;;10.93;10.03;;;;;;;;;;5091691;28;20821;-76
2022/05/04 10:44:02;;;;;;;12.27;11.27;;;;;;;;;;5091332;28;20547;-75
2022/05/04 10:46:30;;;;;;;10.53;9.53;;;;;;;;;;5091746;28;20460;-75
2022/05/04 10:48:59;;;;;;;10.70;9.90;;;;;;;;;;5091032;28;20810;-76
2022/05/04 10:51:28;;;;;;;10.20;9.50;;;;;;;;;;5091161;28;20823;-74
2022/05/04 10:53:59;;;;;;;10.67;9.87;;;;;;;;;;5090985;28;20489;-75
2022/05/04 10:56:27;;;;;;;9.93;9.17;;;;;;;;;;5090921;28;20464;-75
2022/05/04 10:58:55;;;;;;;10.70;8.93;;;;;;;;;;5091021;28;20915;-74
2022/05/04 11:01:23;;;;;;;7.50;6.80;;;;;;;;;;5090371;28;20439;-74
2022/05/04 11:03:51;;;;;;;9.00;8.20;;;;;;;;;;5090206;28;20485;-77
2022/05/04 11:06:27;;;;;;;7.77;7.20;;;;;;;;;;5090070;28;20831;-75
2022/05/04 11:08:56;;;;;;;8.17;7.67;;;;;;;;;;5090430;28;20465;-75
2022/05/04 11:11:23;;;;;;;6.60;6.10;;;;;;;;;;5089860;28;20482;-76
2022/05/04 11:13:50;;;;;;;6.30;5.90;;;;;;;;;;5089829;28;20481;-75
2022/05/04 11:16:17;;;;;;;7.57;6.80;;;;;;;;;;5090215;28;20478;-75
2022/05/04 11:18:44;;;;;;;5.47;5.17;;;;;;;;;;5090104;28;20455;-76
2022/05/04 11:21:12;;;;;;;6.63;6.13;;;;;;;;;;5090165;28;20500;-75
2022/05/04 11:23:40;;;;;;;7.43;6.93;;;;;;;;;;5089532;28;20479;-75
2022/05/04 11:26:08;;;;;;;5.50;5.10;;;;;;;;;;5090351;28;20450;-75
2022/05/04 11:28:35;;;;;;;6.50;5.90;;;;;;;;;;5089818;28;20463;-74
2022/05/04 11:31:02;;;;;;;6.33;5.83;;;;;;;;;;5093117;28;20839;-75
2022/05/04 11:33:29;;;;;;;8.03;7.33;;;;;;;;;;5094170;28;20453;-74
2022/05/04 11:35:57;;;;;;;8.03;6.43;;;;;;;;;;5091294;28;20493;-75
2022/05/04 11:38:24;;;;;;;6.37;5.93;;;;;;;;;;5089863;28;20446;-74
2022/05/04 11:40:52;;;;;;;6.97;5.93;;;;;;;;;;5089889;28;20444;-75
2022/05/04 11:43:24;;;;;;;6.23;5.70;;;;;;;;;;5089788;28;20831;-76
2022/05/04 11:45:51;;;;;;;6.80;5.60;;;;;;;;;;5089911;28;20448;-75
2022/05/04 11:48:19;;;;;;;6.87;6.27;;;;;;;;;;5089404;28;21000;-75
2022/05/04 11:50:46;;;;;;;6.90;6.40;;;;;;;;;;5088437;28;20858;-76
2022/05/04 11:53:13;;;;;;;6.50;6.00;;;;;;;;;;5089829;28;20446;-74
2022/05/04 11:55:40;;;;;;;6.27;5.67;;;;;;;;;;5090065;28;20455;-76
2022/05/04 11:58:14;;;;;;;7.03;5.83;;;;;;;;;;5090758;28;20467;-76
2022/05/04 12:00:41;;;;;;;5.57;5.17;;;;;;;;;;5093615;28;20456;-76
2022/05/04 12:03:09;;;;;;;6.10;5.60;;;;;;;;;;5093437;28;20487;-76
2022/05/04 12:05:36;;;;;;;6.17;5.67;;;;;;;;;;5094052;28;20439;-75
2022/05/04 12:08:04;;;;;;;5.97;5.47;;;;;;;;;;5093459;28;20470;-77
2022/05/04 12:10:32;;;;;;;6.70;6.20;;;;;;;;;;5093215;28;20973;-76
2022/05/04 12:12:59;;;;;;;6.13;5.73;;;;;;;;;;5093453;28;20435;-75
2022/05/04 12:15:29;;;;;;;6.23;5.83;;;;;;;;;;5093628;28;20455;-75
2022/05/04 12:18:00;;;;;;;6.00;5.50;;;;;;;;;;5093346;28;20501;-75
2022/05/04 12:20:28;;;;;;;5.40;5.03;;;;;;;;;;5093547;28;20799;-76
2022/05/04 12:22:55;;;;;;;6.20;5.60;;;;;;;;;;5093252;28;20847;-75
2022/05/04 12:25:23;;;;;;;6.30;5.80;;;;;;;;;;5093384;28;20448;-75
2022/05/04 12:27:51;;;;;;;5.73;5.33;;;;;;;;;;5093778;28;20479;-75
2022/05/04 12:33:09;;;;;;;5.93;5.33;;;;;;;;;;5093863;28;20418;-75
2022/05/04 12:35:36;;;;;;;4.60;4.30;;;;;;;;;;5096212;28;20451;-74
2022/05/04 12:38:03;;;;;;;6.30;4.90;;;;;;;;;;5092948;28;20464;-76
2022/05/04 12:40:31;;;;;;;4.80;4.40;;;;;;;;;;5092905;28;20455;-76
2022/05/04 12:43:00;;;;;;;5.17;4.80;;;;;;;;;;5092675;28;20479;-75
2022/05/04 12:45:27;;;;;;;4.90;4.60;;;;;;;;;;5093030;28;20930;-76
2022/05/04 12:47:54;;;;;;;4.70;4.40;;;;;;;;;;5093228;28;20471;-74
2022/05/04 12:50:23;;;;;;;4.60;4.20;;;;;;;;;;5093159;28;20451;-75
2022/05/04 12:52:50;;;;;;;4.73;4.33;;;;;;;;;;5093059;28;20443;-76
2022/05/04 12:55:17;;;;;;;4.40;3.73;;;;;;;;;;5092522;28;20809;-75
2022/05/04 12:57:45;;;;;;;4.53;4.23;;;;;;;;;;5092264;28;20463;-75
2022/05/04 13:00:13;;;;;;;4.23;3.93;;;;;;;;;;5092385;28;20479;-76
2022/05/04 13:02:42;;;;;;;3.70;3.50;;;;;;;;;;5092030;28;20798;-76
2022/05/04 13:05:09;;;;;;;4.27;4.00;;;;;;;;;;5092413;28;20720;-74
2022/05/04 13:07:37;;;;;;;4.73;4.33;;;;;;;;;;5092129;28;21001;-74
2022/05/04 13:10:05;;;;;;;4.93;4.50;;;;;;;;;;5091269;28;20531;-75
2022/05/04 13:12:32;;;;;;;4.43;4.00;;;;;;;;;;5092376;28;20895;-75
2022/05/04 13:14:59;;;;;;;5.40;3.50;;;;;;;;;;5092563;28;20444;-75
2022/05/04 13:17:26;;;;;;;3.77;3.53;;;;;;;;;;5092275;28;20459;-75
2022/05/04 13:19:53;;;;;;;4.33;4.00;;;;;;;;;;5092626;28;20451;-76
2022/05/04 13:22:20;;;;;;;4.83;4.43;;;;;;;;;;5092380;28;20487;-75
2022/05/04 13:24:48;;;;;;;4.77;4.40;;;;;;;;;;5091834;28;20446;-75
2022/05/04 13:27:15;;;;;;;4.53;4.13;;;;;;;;;;5092292;28;20471;-75
2022/05/04 13:29:42;;;;;;;6.07;4.07;;;;;;;;;;5092090;28;20931;-76
2022/05/04 13:32:09;;;;;;;4.70;4.40;;;;;;;;;;5092026;28;20451;-76
2022/05/04 13:34:37;;;;;;;4.90;4.50;;;;;;;;;;5091718;28;20459;-75
2022/05/04 13:37:04;;;;;;;4.37;4.00;;;;;;;;;;5091860;28;20566;-76
2022/05/04 13:39:31;;;;;;;4.30;4.00;;;;;;;;;;5092190;28;20448;-76
2022/05/04 13:41:59;;;;;;;4.97;4.40;;;;;;;;;;5092201;28;20950;-76
2022/05/04 13:44:26;;;;;;;5.27;4.87;;;;;;;;;;5092040;28;20483;-75
2022/05/04 13:46:53;;;;;;;5.10;4.70;;;;;;;;;;5092021;28;20466;-74
2022/05/04 13:49:20;;;;;;;4.87;4.50;;;;;;;;;;5091885;28;20443;-75
2022/05/04 13:54:32;;;;;;;5.93;4.27;;;;;;;;;;5091558;28;20730;-75
2022/05/04 13:57:00;;;;;;;6.37;4.97;;;;;;;;;;5091516;28;20468;-75
2022/05/04 13:59:27;;;;;;;5.13;4.63;;;;;;;;;;5091907;28;20490;-75
2022/05/04 14:01:54;;;;;;;5.20;4.60;;;;;;;;;;5091475;28;20446;-75
2022/05/04 14:04:22;;;;;;;5.00;4.60;;;;;;;;;;5091118;28;20471;-75
2022/05/04 14:06:50;;;;;;;5.03;4.67;;;;;;;;;;5092136;28;20851;-75
2022/05/04 14:09:17;;;;;;;4.27;3.93;;;;;;;;;;5091668;28;20440;-77
2022/05/04 14:11:44;;;;;;;4.67;4.27;;;;;;;;;;5091497;28;20432;-75
2022/05/04 14:16:57;;;;;;;5.20;4.50;;;;;;;;;;5090969;28;20451;-75
2022/05/04 14:19:24;;;;;;;5.00;4.60;;;;;;;;;;5091426;28;20447;-75
2022/05/04 14:21:52;;;;;;;4.70;4.20;;;;;;;;;;5091095;28;20444;-76
2022/05/04 14:24:20;;;;;;;5.50;4.50;;;;;;;;;;5090741;28;20574;-75
2022/05/04 14:26:47;;;;;;;4.53;3.80;;;;;;;;;;5090765;28;20467;-75
2022/05/04 14:29:16;;;;;;;4.47;4.13;;;;;;;;;;5090049;28;20540;-75
2022/05/04 14:31:43;;;;;;;4.50;4.10;;;;;;;;;;5089777;28;20436;-75
2022/05/04 14:34:10;;;;;;;4.43;4.10;;;;;;;;;;5089852;28;20846;-75
2022/05/04 14:36:37;;;;;;;5.22;4.03;;;;;;;;;;5089831;28;20436;-75
2022/05/04 14:39:04;;;;;;;4.40;4.10;;;;;;;;;;5090225;28;20497;-75
2022/05/04 14:41:31;;;;;;;4.70;4.20;;;;;;;;;;5090660;28;20451;-75
2022/05/04 14:43:58;;;;;;;4.57;4.18;;;;;;;;;;5090343;28;20453;-75
2022/05/04 14:46:27;;;;;;;4.60;4.30;;;;;;;;;;5090540;28;20778;-74
2022/05/04 14:48:54;;;;;;;5.10;4.60;;;;;;;;;;5090548;28;20970;-76
2022/05/04 14:51:22;;;;;;;4.30;4.00;;;;;;;;;;5090422;28;20432;-75
2022/05/04 14:53:52;;;;;;;4.72;4.43;;;;;;;;;;5089245;28;20520;-76
2022/05/04 14:56:19;;;;;;;4.63;4.23;;;;;;;;;;5090439;28;20222;-76
2022/05/04 14:58:46;;;;;;;4.03;3.75;;;;;;;;;;5089857;28;20437;-76
2022/05/04 15:01:13;;;;;;;4.80;4.40;;;;;;;;;;5089581;28;20491;-77
2022/05/04 15:06:27;;;;;;;4.97;4.00;;;;;;;;;;5088971;28;20432;-76
2022/05/04 15:08:54;;;;;;;4.30;4.00;;;;;;;;;;5088946;28;20440;-76
2022/05/04 15:11:22;;;;;;;4.10;3.70;;;;;;;;;;5089824;28;20587;-75
2022/05/04 15:13:49;;;;;;;5.93;5.30;;;;;;;;;;5090040;28;20547;-76